KORF METAR and TAF | Updated Today

KORF METAR

Norfolk International Airport

Observation time: 60 min. ago

KORF 301651Z 22016G23KT 10SM SCT100 09/M05 A3006 RMK AO2 SLP177 T00891050

Need help? Read our tutorial on how to read METARs or read the parsed version below.

Norfolk International Airport (KORF) METAR

  • Weather conditions on Tue, 30 Nov 2021 16:51:00 +0000 (60 min. ago):
  • Present conditions: Dry
  • Clouds: Scattered at 3048 meters
  • Visibility: 16093 meters
  • Wind: 220 degrees at 16 knots
  • Temperature: 9 celsius
  • Dew point: -5 celsius
  • Pressure: 30.06 inHg
  • Remarks: AO2 SLP177 T00891050


Useful to know...

KORF TAF

Norfolk International Airport

KORF 301120Z 3012/0112 20007KT P6SM BKN090 FM301600 22012G23KT P6SM SCT100
Observation time: 6:31 hr. ago
Need help? Read our tutorial on how to read TAFs or read the parsed version below.

Parsed version of TAF for Norfolk International Airport (KORF)

  • From 30 November at 12:00 UTC, to day 01 of the month at 12:00 UTC
  • Clouds: Broken sky at 2743 meters
  • Wind: 200 degrees at 7
  • From day 30 of the month at 16:00 UTC
  • Clouds: Scattered at 3048 meters
  • Wind: 220 degrees at 12